Time;durP1;ratioP1;P1;durP2;ratioP2;P2;SDS_P1;SDS_P2;PMS_P1;PMS_P2;Temp;Humidity;BMP_temperature;BMP_pressure;BME280_temperature;BME280_humidity;BME280_pressure;Samples;Min_cycle;Max_cycle;Signal;HPM_P1;HPM_P2
2023/10/23 00:00:17;;;;;;;3.33;1.47;;;5.80;99.90;;;;;;2074355;28;20192;-71
2023/10/23 00:01:18;;;;;;;2.27;1.40;;;5.80;99.90;;;;;;2076755;28;20220;-71
2023/10/23 00:02:19;;;;;;;2.70;1.57;;;5.80;99.90;;;;;;2068931;28;20439;-71
2023/10/23 00:03:19;;;;;;;3.17;1.27;;;5.80;99.90;;;;;;2071120;28;20185;-70
2023/10/23 00:04:20;;;;;;;3.23;1.57;;;5.90;99.90;;;;;;2071243;28;20607;-71
2023/10/23 00:05:20;;;;;;;4.37;1.50;;;5.90;99.90;;;;;;2066208;28;20187;-70
2023/10/23 00:06:21;;;;;;;2.87;1.50;;;5.80;99.90;;;;;;2078880;28;20188;-70
2023/10/23 00:07:21;;;;;;;2.97;1.57;;;5.70;99.90;;;;;;2078157;28;20207;-70
2023/10/23 00:08:22;;;;;;;2.30;1.50;;;5.80;99.90;;;;;;2061534;28;20273;-71
2023/10/23 00:09:23;;;;;;;2.80;1.63;;;5.80;99.90;;;;;;2063804;28;20186;-70
2023/10/23 00:10:23;;;;;;;3.37;1.23;;;5.80;99.90;;;;;;2064310;28;20197;-70
2023/10/23 00:11:26;;;;;;;1.97;1.27;;;5.70;99.90;;;;;;2070094;28;20683;-70
2023/10/23 00:12:26;;;;;;;3.85;1.50;;;5.70;99.90;;;;;;2070594;28;20983;-70
2023/10/23 00:13:27;;;;;;;5.73;1.70;;;5.80;99.90;;;;;;2074912;28;20240;-70
2023/10/23 00:14:28;;;;;;;2.80;1.50;;;5.80;99.90;;;;;;2079863;28;20592;-70
2023/10/23 00:15:29;;;;;;;5.20;1.67;;;5.70;99.90;;;;;;2073686;28;20742;-70
2023/10/23 00:16:30;;;;;;;2.63;1.38;;;5.70;99.90;;;;;;2072248;28;20789;-70
2023/10/23 00:17:31;;;;;;;3.30;1.53;;;5.70;99.90;;;;;;2072220;28;20229;-70
2023/10/23 00:18:31;;;;;;;1.50;1.23;;;5.70;99.90;;;;;;2073848;28;20814;-70
2023/10/23 00:19:32;;;;;;;3.77;1.33;;;5.70;99.90;;;;;;2071583;28;20303;-70
2023/10/23 00:20:33;;;;;;;1.93;1.43;;;5.70;99.90;;;;;;2071298;28;20236;-71
2023/10/23 00:21:33;;;;;;;2.20;1.23;;;5.70;99.90;;;;;;2071986;28;20240;-70
2023/10/23 00:22:34;;;;;;;3.23;1.30;;;5.70;99.90;;;;;;2067087;28;20347;-71
2023/10/23 00:23:34;;;;;;;2.83;1.50;;;5.60;99.90;;;;;;2068740;28;20230;-70
2023/10/23 00:24:36;;;;;;;2.87;1.33;;;5.50;99.90;;;;;;2071824;28;20236;-70
2023/10/23 00:25:36;;;;;;;2.33;1.35;;;5.50;99.90;;;;;;2070035;28;20229;-70
2023/10/23 00:26:37;;;;;;;1.73;1.40;;;5.50;99.90;;;;;;2070792;28;20230;-71
2023/10/23 00:27:37;;;;;;;1.90;1.30;;;5.50;99.90;;;;;;2072603;28;20711;-70
2023/10/23 00:28:38;;;;;;;3.23;1.33;;;5.50;99.90;;;;;;2071393;28;20234;-71
2023/10/23 00:29:39;;;;;;;2.63;1.37;;;5.50;99.90;;;;;;2069907;28;20711;-70
2023/10/23 00:30:39;;;;;;;2.67;1.27;;;5.60;99.90;;;;;;2068668;28;21013;-71
2023/10/23 00:31:40;;;;;;;4.57;1.60;;;5.60;99.90;;;;;;2069889;28;20296;-70
2023/10/23 00:32:40;;;;;;;3.40;1.60;;;5.60;99.90;;;;;;2069669;28;20233;-70
2023/10/23 00:33:41;;;;;;;2.43;1.27;;;5.60;99.90;;;;;;2069736;28;20232;-70
2023/10/23 00:34:42;;;;;;;3.87;2.03;;;5.60;99.90;;;;;;2068775;28;20237;-71
2023/10/23 00:35:42;;;;;;;2.80;2.00;;;5.50;99.90;;;;;;2068747;28;20238;-70
2023/10/23 00:36:43;;;;;;;4.10;1.60;;;5.50;99.90;;;;;;2068384;28;20229;-70
2023/10/23 00:37:44;;;;;;;3.50;1.50;;;5.50;99.90;;;;;;2071399;28;20266;-70
2023/10/23 00:38:44;;;;;;;3.57;1.50;;;5.50;99.90;;;;;;2072025;28;20779;-70
2023/10/23 00:39:45;;;;;;;4.13;1.43;;;5.50;99.90;;;;;;2064757;28;20249;-70
2023/10/23 00:40:46;;;;;;;5.80;1.60;;;5.50;99.90;;;;;;2065148;28;20242;-70
2023/10/23 00:41:46;;;;;;;3.87;1.40;;;5.50;99.90;;;;;;2068733;28;20234;-70
2023/10/23 00:42:47;;;;;;;3.53;1.67;;;5.50;99.90;;;;;;2064785;28;20238;-70
2023/10/23 00:43:48;;;;;;;3.40;1.50;;;5.50;99.90;;;;;;2070348;28;20700;-70
2023/10/23 00:44:48;;;;;;;4.43;1.60;;;5.50;99.90;;;;;;2070243;28;20360;-70
2023/10/23 00:45:50;;;;;;;3.33;1.27;;;5.40;99.90;;;;;;2072580;28;20818;-70
2023/10/23 00:46:51;;;;;;;2.97;1.48;;;5.40;99.90;;;;;;2069027;28;20286;-70
2023/10/23 00:47:52;;;;;;;4.07;1.40;;;5.40;99.90;;;;;;2068560;28;20246;-70
2023/10/23 00:48:53;;;;;;;2.20;1.27;;;5.30;99.90;;;;;;2071801;28;20239;-70
2023/10/23 00:49:55;;;;;;;3.95;1.48;;;5.30;99.90;;;;;;2068933;28;20308;-70
2023/10/23 00:50:58;;;;;;;2.92;1.60;;;5.30;99.90;;;;;;2067632;28;20229;-70
2023/10/23 00:52:01;;;;;;;2.20;1.38;;;5.30;99.90;;;;;;2078416;28;20260;-70
2023/10/23 00:53:01;;;;;;;4.10;1.30;;;5.30;99.90;;;;;;2077781;28;20232;-70
2023/10/23 00:54:03;;;;;;;3.00;1.23;;;5.30;99.90;;;;;;2084291;28;20232;-70
2023/10/23 00:55:05;;;;;;;5.00;1.38;;;5.30;99.90;;;;;;2074865;28;20254;-70
2023/10/23 00:56:07;;;;;;;3.85;1.50;;;5.30;99.90;;;;;;2071453;28;20704;-70
2023/10/23 00:57:08;;;;;;;3.28;1.50;;;5.30;99.90;;;;;;2066601;28;20649;-71
2023/10/23 00:58:09;;;;;;;2.37;1.20;;;5.30;99.90;;;;;;2068445;28;20190;-71
2023/10/23 00:59:10;;;;;;;1.67;1.13;;;5.30;99.90;;;;;;2072096;28;20174;-71
2023/10/23 01:00:11;;;;;;;5.90;1.47;;;5.20;99.90;;;;;;2068574;28;20269;-71
2023/10/23 01:01:12;;;;;;;2.90;1.15;;;5.20;99.90;;;;;;2071074;28;20190;-71
2023/10/23 01:02:14;;;;;;;4.30;1.92;;;5.20;99.90;;;;;;2076682;28;20713;-71
2023/10/23 01:03:15;;;;;;;1.80;1.30;;;5.20;99.90;;;;;;2076687;28;20635;-70
2023/10/23 01:04:16;;;;;;;3.10;1.47;;;5.20;99.90;;;;;;2071712;28;20185;-70
2023/10/23 01:05:16;;;;;;;2.53;1.60;;;5.30;99.90;;;;;;2072086;28;20197;-71
2023/10/23 01:06:17;;;;;;;3.00;1.80;;;5.20;99.90;;;;;;2071117;28;20204;-71
2023/10/23 01:07:18;;;;;;;3.33;1.53;;;5.20;99.90;;;;;;2071651;28;20273;-70
2023/10/23 01:08:19;;;;;;;4.07;1.80;;;5.20;99.90;;;;;;2071607;28;20201;-70
2023/10/23 01:09:19;;;;;;;2.57;1.40;;;5.20;99.90;;;;;;2071085;28;20602;-71
2023/10/23 01:10:20;;;;;;;3.63;1.40;;;5.20;99.90;;;;;;2066804;28;20284;-70
2023/10/23 01:11:21;;;;;;;4.40;1.60;;;5.20;99.90;;;;;;2059840;28;20201;-70
2023/10/23 01:12:22;;;;;;;3.42;1.77;;;5.10;99.90;;;;;;2064734;28;20303;-70
2023/10/23 01:13:23;;;;;;;3.43;1.50;;;5.10;99.90;;;;;;2071279;28;20209;-70
2023/10/23 01:14:24;;;;;;;3.78;1.50;;;5.00;99.90;;;;;;2071102;28;20250;-71
2023/10/23 01:15:24;;;;;;;5.40;1.40;;;5.00;99.90;;;;;;2069348;28;20210;-71
2023/10/23 01:16:25;;;;;;;4.17;1.60;;;5.10;99.90;;;;;;2069128;28;20590;-71
2023/10/23 01:17:26;;;;;;;3.10;1.50;;;5.10;99.90;;;;;;2068418;28;20181;-71
2023/10/23 01:18:26;;;;;;;2.33;1.50;;;5.10;99.90;;;;;;2069357;28;20237;-71
2023/10/23 01:19:27;;;;;;;4.27;1.37;;;5.20;99.90;;;;;;2069686;28;20194;-71
2023/10/23 01:20:28;;;;;;;2.53;1.40;;;5.20;99.90;;;;;;2068836;28;20259;-70
2023/10/23 01:21:29;;;;;;;3.22;1.38;;;5.20;99.90;;;;;;2068547;28;20240;-70
2023/10/23 01:22:30;;;;;;;3.83;1.53;;;5.10;99.90;;;;;;2070626;28;20252;-71
2023/10/23 01:23:35;;;;;;;2.47;1.63;;;5.00;99.90;;;;;;2075299;28;20237;-71
2023/10/23 01:24:39;;;;;;;4.25;1.50;;;5.00;99.90;;;;;;2071744;28;20225;-71
2023/10/23 01:25:40;;;;;;;2.72;1.50;;;5.00;99.90;;;;;;2076063;28;20605;-70
2023/10/23 01:26:40;;;;;;;5.13;1.60;;;5.00;99.90;;;;;;2080437;28;20236;-71
2023/10/23 01:27:42;;;;;;;3.47;1.73;;;5.00;99.90;;;;;;2077003;28;20680;-70
2023/10/23 01:28:43;;;;;;;3.05;1.40;;;5.00;99.90;;;;;;2077151;28;20992;-70
2023/10/23 01:29:44;;;;;;;2.00;1.23;;;5.00;99.90;;;;;;2074087;28;20264;-71
2023/10/23 01:30:44;;;;;;;1.67;1.23;;;5.00;99.90;;;;;;2069504;28;20614;-70
2023/10/23 01:31:45;;;;;;;2.20;1.40;;;5.00;99.90;;;;;;2066505;28;20272;-70
2023/10/23 01:32:46;;;;;;;3.87;1.60;;;5.00;99.90;;;;;;2071024;28;20229;-71
2023/10/23 01:33:47;;;;;;;3.17;1.53;;;5.00;99.90;;;;;;2059047;28;20223;-71
2023/10/23 01:34:48;;;;;;;2.10;1.20;;;5.00;99.90;;;;;;2061311;28;20225;-71
2023/10/23 01:35:49;;;;;;;3.00;1.23;;;5.00;99.90;;;;;;2067784;28;20588;-70
2023/10/23 01:36:49;;;;;;;1.87;1.37;;;5.00;99.90;;;;;;2066000;28;20272;-70
2023/10/23 01:37:51;;;;;;;2.80;1.43;;;5.00;99.90;;;;;;2067343;28;20307;-70
2023/10/23 01:38:52;;;;;;;2.85;1.25;;;5.00;99.90;;;;;;2070310;28;20251;-71
2023/10/23 01:39:52;;;;;;;3.17;1.40;;;5.00;99.90;;;;;;2071340;28;20221;-71
2023/10/23 01:40:53;;;;;;;4.03;1.50;;;5.00;99.90;;;;;;2071308;28;20733;-70
2023/10/23 01:41:53;;;;;;;3.67;1.60;;;5.00;99.90;;;;;;2068623;28;20783;-70
2023/10/23 01:42:54;;;;;;;2.10;1.50;;;5.00;99.90;;;;;;2069949;28;20620;-70
2023/10/23 01:43:55;;;;;;;2.03;1.40;;;5.00;99.90;;;;;;2070648;28;20723;-70
2023/10/23 01:44:56;;;;;;;2.17;1.33;;;4.90;99.90;;;;;;2065725;28;20229;-70
2023/10/23 01:45:59;;;;;;;4.00;1.50;;;5.00;99.90;;;;;;2061915;28;20230;-70
2023/10/23 01:46:59;;;;;;;3.17;1.60;;;5.00;99.90;;;;;;2071239;28;20302;-71
2023/10/23 01:48:00;;;;;;;2.43;1.50;;;5.00;99.90;;;;;;2067529;28;20759;-71
2023/10/23 01:49:01;;;;;;;2.07;1.33;;;5.00;99.90;;;;;;2070109;28;20228;-71
2023/10/23 01:50:02;;;;;;;3.27;1.30;;;5.00;99.90;;;;;;2069466;28;20287;-69
2023/10/23 01:51:02;;;;;;;2.70;1.20;;;4.90;99.90;;;;;;2070439;28;20768;-70
2023/10/23 01:52:04;;;;;;;6.40;1.30;;;4.90;99.90;;;;;;2074463;28;20251;-70
2023/10/23 01:53:04;;;;;;;3.42;1.20;;;4.90;99.90;;;;;;2074614;28;20480;-70
2023/10/23 01:54:05;;;;;;;4.33;1.60;;;4.90;99.90;;;;;;2074730;28;20254;-70
2023/10/23 01:55:06;;;;;;;1.60;1.30;;;4.80;99.90;;;;;;2075360;28;20243;-70
2023/10/23 01:56:08;;;;;;;3.67;1.30;;;4.80;99.90;;;;;;2068039;28;20228;-71
2023/10/23 01:57:12;;;;;;;2.90;1.40;;;4.80;99.90;;;;;;2069726;28;20432;-72
2023/10/23 01:58:13;;;;;;;2.53;1.42;;;4.80;99.90;;;;;;2075979;28;20196;-71
2023/10/23 01:59:14;;;;;;;1.57;1.40;;;4.80;99.90;;;;;;2076092;28;20192;-70
2023/10/23 02:00:15;;;;;;;3.53;1.40;;;4.80;99.90;;;;;;2066329;28;20710;-71
2023/10/23 02:01:22;;;;;;;3.23;1.30;;;4.80;99.90;;;;;;2070288;28;20181;-71
2023/10/23 02:02:23;;;;;;;2.08;1.30;;;4.90;99.90;;;;;;2064937;28;20280;-71
2023/10/23 02:03:23;;;;;;;2.83;1.40;;;4.80;99.90;;;;;;2071122;28;20671;-70
2023/10/23 02:04:26;;;;;;;1.43;1.20;;;4.80;99.90;;;;;;2070904;28;20290;-71
2023/10/23 02:05:26;;;;;;;3.10;1.40;;;4.80;99.90;;;;;;2070822;28;22953;-70
2023/10/23 02:06:27;;;;;;;4.13;1.50;;;4.80;99.90;;;;;;2070492;28;20237;-71
2023/10/23 02:07:27;;;;;;;2.17;1.37;;;4.80;99.90;;;;;;2069347;28;20233;-70
2023/10/23 02:08:28;;;;;;;5.17;1.30;;;4.80;99.90;;;;;;2068414;28;20300;-71
2023/10/23 02:09:29;;;;;;;4.37;1.30;;;4.80;99.90;;;;;;2069558;28;20260;-70
2023/10/23 02:10:29;;;;;;;2.27;1.50;;;4.80;99.90;;;;;;2067170;28;20230;-71
2023/10/23 02:11:30;;;;;;;1.83;1.50;;;4.80;99.90;;;;;;2069900;28;20722;-70
2023/10/23 02:12:33;;;;;;;2.80;1.70;;;4.80;99.90;;;;;;2068804;28;20235;-70
2023/10/23 02:13:34;;;;;;;3.85;1.77;;;4.70;99.90;;;;;;2065811;28;20605;-71
2023/10/23 02:14:35;;;;;;;3.33;1.10;;;4.80;99.90;;;;;;2069630;28;20719;-70
2023/10/23 02:15:35;;;;;;;3.00;1.30;;;4.70;99.90;;;;;;2069222;28;20232;-71
2023/10/23 02:16:36;;;;;;;2.87;1.57;;;4.70;99.90;;;;;;2068164;28;20237;-70
2023/10/23 02:17:38;;;;;;;2.80;1.30;;;4.60;99.90;;;;;;2071019;28;20708;-70
2023/10/23 02:18:38;;;;;;;5.18;1.40;;;4.60;99.90;;;;;;2068323;28;20271;-70
2023/10/23 02:19:39;;;;;;;2.97;1.30;;;4.60;99.90;;;;;;2070880;28;20828;-70
2023/10/23 02:20:39;;;;;;;2.93;1.23;;;4.60;99.90;;;;;;2070611;28;20236;-71
2023/10/23 02:21:40;;;;;;;1.97;1.30;;;4.60;99.90;;;;;;2075873;28;20658;-71
2023/10/23 02:22:41;;;;;;;3.50;1.40;;;4.50;99.90;;;;;;2075816;28;20239;-70
2023/10/23 02:23:41;;;;;;;2.77;1.20;;;4.50;99.90;;;;;;2069173;28;20254;-71
2023/10/23 02:24:42;;;;;;;1.83;1.20;;;4.50;99.90;;;;;;2076939;28;20293;-70
2023/10/23 02:25:42;;;;;;;2.33;1.23;;;4.50;99.90;;;;;;2070325;28;20233;-70
2023/10/23 02:26:43;;;;;;;1.47;1.20;;;4.60;99.90;;;;;;2070083;28;20308;-70
2023/10/23 02:27:44;;;;;;;1.37;1.20;;;4.50;99.90;;;;;;2069088;28;20232;-70
2023/10/23 02:28:44;;;;;;;1.97;1.37;;;4.50;99.90;;;;;;2070010;28;20283;-71
2023/10/23 02:29:45;;;;;;;2.47;1.20;;;4.50;99.90;;;;;;2066163;28;20233;-70
2023/10/23 02:30:46;;;;;;;2.77;1.50;;;4.60;99.90;;;;;;2074466;28;20232;-70
2023/10/23 02:31:46;;;;;;;2.00;1.40;;;4.60;99.90;;;;;;2067970;28;20700;-70
2023/10/23 02:32:47;;;;;;;5.73;1.27;;;4.60;99.90;;;;;;2077265;28;20236;-71
2023/10/23 02:33:48;;;;;;;2.83;1.33;;;4.50;99.90;;;;;;2077846;28;20263;-71
2023/10/23 02:34:48;;;;;;;3.03;1.42;;;4.50;99.90;;;;;;2073740;28;20308;-71
2023/10/23 02:35:49;;;;;;;4.17;1.50;;;4.50;99.90;;;;;;2078653;28;20882;-71
2023/10/23 02:36:50;;;;;;;3.07;1.37;;;4.50;99.90;;;;;;2070526;28;20241;-71
2023/10/23 02:37:52;;;;;;;2.42;1.42;;;4.50;99.90;;;;;;2063682;28;20287;-71
2023/10/23 02:38:52;;;;;;;3.50;1.48;;;4.40;99.90;;;;;;2071110;28;20761;-70
2023/10/23 02:39:53;;;;;;;2.67;1.40;;;4.50;99.90;;;;;;2071809;28;20286;-71
2023/10/23 02:40:54;;;;;;;2.25;1.40;;;4.40;99.90;;;;;;2071009;28;20229;-71
2023/10/23 02:41:55;;;;;;;2.75;1.40;;;4.50;99.90;;;;;;2070615;28;20624;-70
2023/10/23 02:42:56;;;;;;;2.97;1.10;;;4.50;99.90;;;;;;2071180;28;20240;-70
2023/10/23 02:43:57;;;;;;;2.80;1.33;;;4.50;99.90;;;;;;2066865;28;20586;-70
2023/10/23 02:44:57;;;;;;;2.53;1.30;;;4.50;99.90;;;;;;2079679;28;20294;-70
2023/10/23 02:46:02;;;;;;;1.43;1.20;;;4.60;99.90;;;;;;2075928;28;20243;-70
2023/10/23 02:47:03;;;;;;;1.42;1.27;;;4.50;99.90;;;;;;2070904;28;20251;-70
2023/10/23 02:48:04;;;;;;;1.42;1.25;;;4.50;99.90;;;;;;2070295;28;20237;-71
2023/10/23 02:49:05;;;;;;;2.20;1.40;;;4.50;99.90;;;;;;2082782;28;20264;-71
2023/10/23 02:50:06;;;;;;;4.30;1.48;;;4.50;99.90;;;;;;2074719;28;20240;-70
2023/10/23 02:51:07;;;;;;;2.88;1.30;;;4.50;99.90;;;;;;2075166;28;20717;-71
2023/10/23 02:52:07;;;;;;;2.30;1.30;;;4.40;99.90;;;;;;2086844;28;20282;-71
2023/10/23 02:53:08;;;;;;;1.90;1.50;;;4.40;99.90;;;;;;2087077;28;20218;-71
2023/10/23 02:54:09;;;;;;;7.47;1.83;;;4.40;99.90;;;;;;2083773;28;20198;-71
2023/10/23 02:55:09;;;;;;;3.17;1.30;;;4.40;99.90;;;;;;2086862;28;20191;-72
2023/10/23 02:56:11;;;;;;;1.23;1.10;;;4.50;99.90;;;;;;2078706;28;20266;-71
2023/10/23 02:57:12;;;;;;;3.75;1.80;;;4.50;99.90;;;;;;2079251;28;20607;-71
2023/10/23 02:58:12;;;;;;;1.77;1.33;;;4.50;99.90;;;;;;2079438;28;20201;-71
2023/10/23 02:59:13;;;;;;;3.23;1.30;;;4.50;99.90;;;;;;2083681;28;20192;-70
2023/10/23 03:00:14;;;;;;;4.27;1.27;;;4.60;99.90;;;;;;2082671;28;20185;-71
2023/10/23 03:01:20;;;;;;;3.03;1.40;;;4.50;99.90;;;;;;2078768;28;20238;-71
2023/10/23 03:02:21;;;;;;;3.65;1.50;;;4.50;99.90;;;;;;2076659;28;20250;-71
2023/10/23 03:03:21;;;;;;;2.80;1.37;;;4.50;99.90;;;;;;2069641;28;20214;-71
2023/10/23 03:04:22;;;;;;;2.07;1.50;;;4.50;99.90;;;;;;2069701;28;20189;-71
2023/10/23 03:05:22;;;;;;;3.03;1.40;;;4.50;99.90;;;;;;2067069;28;20192;-71
2023/10/23 03:06:23;;;;;;;1.30;1.20;;;4.50;99.90;;;;;;2067692;28;20676;-71
2023/10/23 03:07:24;;;;;;;2.40;1.50;;;4.50;99.90;;;;;;2069056;28;20244;-71
2023/10/23 03:08:25;;;;;;;3.17;1.40;;;4.50;99.90;;;;;;2068523;28;20262;-71
2023/10/23 03:09:25;;;;;;;4.35;1.55;;;4.50;99.90;;;;;;2063070;28;20193;-71
2023/10/23 03:10:26;;;;;;;3.10;1.37;;;4.60;99.90;;;;;;2072453;28;20605;-71
2023/10/23 03:11:27;;;;;;;3.23;1.50;;;4.50;99.90;;;;;;2076107;28;20734;-71
2023/10/23 03:12:27;;;;;;;2.77;1.40;;;4.50;99.90;;;;;;2068222;28;20240;-70
2023/10/23 03:13:28;;;;;;;2.30;1.47;;;4.50;99.90;;;;;;2066958;28;20242;-71
2023/10/23 03:14:29;;;;;;;4.15;1.30;;;4.40;99.90;;;;;;2070741;28;20236;-71
2023/10/23 03:15:30;;;;;;;1.60;1.30;;;4.50;99.90;;;;;;2070563;28;20243;-71
2023/10/23 03:16:30;;;;;;;2.63;1.30;;;4.40;99.90;;;;;;2069456;28;20263;-71
2023/10/23 03:17:31;;;;;;;2.57;1.47;;;4.40;99.90;;;;;;2067955;28;20242;-70
2023/10/23 03:18:31;;;;;;;2.20;1.27;;;4.50;99.90;;;;;;2070881;28;20231;-71
2023/10/23 03:19:32;;;;;;;2.17;1.20;;;4.50;99.90;;;;;;2060165;28;20233;-70
2023/10/23 03:20:35;;;;;;;2.10;1.33;;;4.50;99.90;;;;;;2055610;28;20599;-70
2023/10/23 03:21:36;;;;;;;2.25;1.38;;;4.50;99.90;;;;;;2072087;28;20262;-70
2023/10/23 03:22:37;;;;;;;3.57;1.30;;;4.40;99.90;;;;;;2066022;28;20238;-70
2023/10/23 03:23:38;;;;;;;3.88;1.30;;;4.40;99.90;;;;;;2068924;28;20242;-71
2023/10/23 03:24:39;;;;;;;2.23;1.30;;;4.40;99.90;;;;;;2073502;28;20244;-70
2023/10/23 03:25:42;;;;;;;3.00;1.30;;;4.40;99.90;;;;;;2066660;28;20248;-70
2023/10/23 03:26:43;;;;;;;2.60;1.58;;;4.40;99.90;;;;;;2070425;28;20239;-71
2023/10/23 03:27:43;;;;;;;1.93;1.27;;;4.30;99.90;;;;;;2069542;28;20243;-70
2023/10/23 03:28:44;;;;;;;3.07;1.40;;;4.30;99.90;;;;;;2072160;28;20239;-71
2023/10/23 03:29:44;;;;;;;3.77;1.53;;;4.40;99.90;;;;;;2078263;28;20725;-71
2023/10/23 03:30:45;;;;;;;3.07;1.60;;;4.30;99.90;;;;;;2078700;28;20326;-70
2023/10/23 03:31:45;;;;;;;3.97;1.40;;;4.30;99.90;;;;;;2079384;28;20228;-71
2023/10/23 03:32:46;;;;;;;3.57;1.30;;;4.40;99.90;;;;;;2078979;28;20235;-70
2023/10/23 03:33:47;;;;;;;3.43;1.40;;;4.40;99.90;;;;;;2079110;28;20231;-71
2023/10/23 03:34:48;;;;;;;1.42;1.33;;;4.30;99.90;;;;;;2079263;28;20382;-70
2023/10/23 03:35:49;;;;;;;1.10;1.00;;;4.30;99.90;;;;;;2076272;28;20242;-71
2023/10/23 03:36:49;;;;;;;5.37;1.40;;;4.40;99.90;;;;;;2069734;28;20255;-71
2023/10/23 03:37:50;;;;;;;2.40;1.30;;;4.30;99.90;;;;;;2078756;28;20326;-71
2023/10/23 03:38:50;;;;;;;2.17;1.23;;;4.30;99.90;;;;;;2073730;28;20683;-71
2023/10/23 03:39:51;;;;;;;2.67;1.23;;;4.30;99.90;;;;;;2075553;28;20609;-71
2023/10/23 03:40:55;;;;;;;2.95;1.40;;;4.30;99.90;;;;;;2078378;28;20235;-71
2023/10/23 03:41:55;;;;;;;1.65;1.30;;;4.30;99.90;;;;;;2078233;28;20232;-71
2023/10/23 03:42:56;;;;;;;3.37;1.40;;;4.30;99.90;;;;;;2077788;28;20263;-71
2023/10/23 03:43:57;;;;;;;1.93;1.10;;;4.30;99.90;;;;;;2084064;28;20234;-71
2023/10/23 03:44:57;;;;;;;1.50;1.40;;;4.40;99.90;;;;;;2078116;28;20230;-71
2023/10/23 03:46:02;;;;;;;1.60;1.40;;;4.40;99.90;;;;;;2073492;28;20265;-71
2023/10/23 03:47:04;;;;;;;3.17;1.58;;;4.40;99.90;;;;;;2074295;28;20244;-71
2023/10/23 03:48:05;;;;;;;1.98;1.20;;;4.30;99.90;;;;;;2077725;28;20236;-72
2023/10/23 03:49:05;;;;;;;2.47;1.50;;;4.30;99.90;;;;;;2070904;28;20240;-70
2023/10/23 03:50:06;;;;;;;1.70;1.30;;;4.20;99.90;;;;;;2073289;28;20234;-71
2023/10/23 03:51:07;;;;;;;2.28;1.30;;;4.30;99.90;;;;;;2071232;28;20232;-71
2023/10/23 03:52:07;;;;;;;2.93;1.50;;;4.30;99.90;;;;;;2074378;28;20998;-71
2023/10/23 03:53:08;;;;;;;1.65;1.38;;;4.20;99.90;;;;;;2077702;28;20286;-71
2023/10/23 03:54:09;;;;;;;2.07;1.27;;;4.20;99.90;;;;;;2080194;28;20200;-71
2023/10/23 03:55:10;;;;;;;2.93;1.50;;;4.20;99.90;;;;;;2076006;28;20196;-71
2023/10/23 03:56:11;;;;;;;1.97;1.20;;;4.20;99.90;;;;;;2076631;28;20203;-71
2023/10/23 03:57:11;;;;;;;2.40;1.30;;;4.20;99.90;;;;;;2088730;28;20227;-71
2023/10/23 03:58:12;;;;;;;4.90;1.43;;;4.20;99.90;;;;;;2084744;28;20662;-71
2023/10/23 03:59:13;;;;;;;3.88;1.50;;;4.20;99.90;;;;;;2076044;28;20189;-71
2023/10/23 04:00:14;;;;;;;3.63;1.60;;;4.20;99.90;;;;;;2076998;28;20751;-71
2023/10/23 04:01:15;;;;;;;4.32;2.00;;;4.10;99.90;;;;;;2078037;28;20283;-71
2023/10/23 04:02:15;;;;;;;3.20;1.20;;;4.10;99.90;;;;;;2078164;28;20222;-71
2023/10/23 04:03:16;;;;;;;1.73;1.40;;;4.20;99.90;;;;;;2080171;28;20649;-71
2023/10/23 04:04:16;;;;;;;4.17;1.40;;;4.10;99.90;;;;;;2080802;28;20223;-71
2023/10/23 04:05:17;;;;;;;3.70;1.50;;;4.10;99.90;;;;;;2080349;28;20199;-71
2023/10/23 04:06:17;;;;;;;1.30;1.20;;;4.10;99.90;;;;;;2080061;28;20231;-71
2023/10/23 04:07:18;;;;;;;2.00;1.20;;;4.20;99.90;;;;;;2069108;28;20193;-71
2023/10/23 04:08:19;;;;;;;2.60;1.40;;;4.20;99.90;;;;;;2077806;28;20248;-71
2023/10/23 04:09:19;;;;;;;1.77;1.30;;;4.20;99.90;;;;;;2078970;28;20215;-70
2023/10/23 04:10:21;;;;;;;3.20;1.60;;;4.20;99.90;;;;;;2088688;28;20968;-71
2023/10/23 04:11:22;;;;;;;5.15;1.63;;;4.20;99.90;;;;;;2082871;28;20188;-71
2023/10/23 04:12:23;;;;;;;2.75;1.40;;;4.30;99.90;;;;;;2078938;28;20232;-71
2023/10/23 04:13:23;;;;;;;2.23;1.53;;;4.30;99.90;;;;;;2069437;28;20208;-71
2023/10/23 04:14:24;;;;;;;2.00;1.30;;;4.30;99.90;;;;;;2065269;28;20276;-71
2023/10/23 04:15:25;;;;;;;2.97;1.57;;;4.30;99.90;;;;;;2081700;28;20659;-71
2023/10/23 04:16:25;;;;;;;2.97;1.40;;;4.30;99.90;;;;;;2077438;28;20232;-71
2023/10/23 04:17:26;;;;;;;4.00;1.63;;;4.20;99.90;;;;;;2079217;28;20217;-71
2023/10/23 04:18:26;;;;;;;1.57;1.30;;;4.30;99.90;;;;;;2077147;28;20314;-71
2023/10/23 04:19:27;;;;;;;2.07;1.20;;;4.20;99.90;;;;;;2076095;28;20707;-71
2023/10/23 04:20:29;;;;;;;6.57;4.70;;;4.30;99.90;;;;;;2079706;28;20588;-71
2023/10/23 04:21:29;;;;;;;8.65;5.35;;;4.30;99.90;;;;;;2065786;28;20274;-71
2023/10/23 04:22:30;;;;;;;6.80;4.50;;;4.40;99.90;;;;;;2056829;28;20616;-71
2023/10/23 04:23:31;;;;;;;4.90;4.00;;;4.30;99.90;;;;;;2059865;28;20762;-71
2023/10/23 04:24:32;;;;;;;3.90;2.85;;;4.40;99.90;;;;;;2072310;28;20307;-71
2023/10/23 04:25:32;;;;;;;3.97;2.20;;;4.40;99.90;;;;;;2073178;28;20604;-71
2023/10/23 04:26:33;;;;;;;3.97;2.40;;;4.30;99.90;;;;;;2076086;28;20224;-71
2023/10/23 04:27:33;;;;;;;3.97;2.20;;;4.20;99.90;;;;;;2079652;28;20637;-71
2023/10/23 04:28:35;;;;;;;4.20;2.03;;;4.20;99.90;;;;;;2078043;28;20227;-71
2023/10/23 04:29:35;;;;;;;3.00;1.98;;;4.30;99.90;;;;;;2077977;28;20698;-71
2023/10/23 04:30:36;;;;;;;4.80;1.70;;;4.30;99.90;;;;;;2073875;28;20272;-71
2023/10/23 04:31:37;;;;;;;4.90;2.70;;;4.20;99.90;;;;;;2069972;28;20229;-71
2023/10/23 04:32:37;;;;;;;5.67;3.47;;;4.20;99.90;;;;;;2071412;28;20295;-71
2023/10/23 04:33:38;;;;;;;7.40;4.33;;;4.10;99.90;;;;;;2070707;28;20241;-71
2023/10/23 04:34:38;;;;;;;6.10;4.17;;;4.20;99.90;;;;;;2058860;28;20325;-71
2023/10/23 04:35:39;;;;;;;8.70;4.70;;;4.20;99.90;;;;;;2061975;28;20276;-71
2023/10/23 04:36:39;;;;;;;8.77;4.43;;;4.20;99.90;;;;;;2066648;28;20264;-71
2023/10/23 04:37:40;;;;;;;8.00;4.43;;;4.30;99.90;;;;;;2067714;28;20244;-71
2023/10/23 04:38:41;;;;;;;7.77;3.80;;;4.30;99.90;;;;;;2074477;28;20442;-71
2023/10/23 04:39:42;;;;;;;5.70;4.20;;;4.30;99.90;;;;;;2073192;28;20300;-71
2023/10/23 04:40:44;;;;;;;9.53;5.30;;;4.40;99.90;;;;;;2068425;28;20647;-71
2023/10/23 04:41:44;;;;;;;8.30;4.60;;;4.30;99.90;;;;;;2075326;28;20235;-70
2023/10/23 04:42:45;;;;;;;7.33;4.27;;;4.40;99.90;;;;;;2079925;28;20244;-71
2023/10/23 04:43:45;;;;;;;7.73;4.43;;;4.50;99.90;;;;;;2079608;28;20361;-71
2023/10/23 04:44:48;;;;;;;6.77;3.90;;;4.40;99.90;;;;;;2079154;28;20221;-71
2023/10/23 04:45:48;;;;;;;5.03;3.05;;;4.40;99.90;;;;;;2077914;28;20725;-71
2023/10/23 04:46:49;;;;;;;8.77;4.23;;;4.40;99.90;;;;;;2075832;28;20233;-71
2023/10/23 04:47:49;;;;;;;7.83;5.37;;;4.30;99.90;;;;;;2076065;28;20248;-71
2023/10/23 04:48:50;;;;;;;7.50;5.13;;;4.20;99.90;;;;;;2077136;28;20236;-71
2023/10/23 04:49:51;;;;;;;7.47;4.27;;;4.20;99.90;;;;;;2078885;28;20227;-71
2023/10/23 04:50:57;;;;;;;6.60;3.22;;;4.30;99.90;;;;;;2076187;28;20278;-70
2023/10/23 04:51:58;;;;;;;7.47;3.35;;;4.30;99.90;;;;;;2076239;28;20303;-71
2023/10/23 04:53:01;;;;;;;4.53;2.90;;;4.40;99.90;;;;;;2076084;28;20252;-71
2023/10/23 04:54:01;;;;;;;4.22;3.08;;;4.40;99.90;;;;;;2077041;28;20241;-71
2023/10/23 04:55:02;;;;;;;4.37;2.80;;;4.40;99.90;;;;;;2075004;28;20245;-70
2023/10/23 04:56:06;;;;;;;4.40;2.70;;;4.50;99.90;;;;;;2070136;28;20733;-71
2023/10/23 04:57:08;;;;;;;4.07;2.67;;;4.40;99.90;;;;;;2057345;28;20456;-71
2023/10/23 04:58:09;;;;;;;4.70;2.80;;;4.40;99.90;;;;;;2075615;28;20242;-71
2023/10/23 04:59:10;;;;;;;5.53;2.77;;;4.30;99.90;;;;;;2086720;28;20199;-71
2023/10/23 05:00:11;;;;;;;6.25;3.55;;;4.40;99.90;;;;;;2079517;28;20275;-71
2023/10/23 05:01:18;;;;;;;6.15;3.60;;;4.40;99.90;;;;;;2064287;28;20221;-72
2023/10/23 05:02:19;;;;;;;6.65;3.95;;;4.40;99.90;;;;;;2077360;28;20288;-71
2023/10/23 05:03:20;;;;;;;5.70;4.43;;;4.40;99.90;;;;;;2081582;28;20192;-71
2023/10/23 05:04:20;;;;;;;6.20;3.80;;;4.40;99.90;;;;;;2081293;28;20436;-71
2023/10/23 05:05:22;;;;;;;6.90;4.23;;;4.40;99.90;;;;;;2080169;28;20205;-71
2023/10/23 05:06:28;;;;;;;7.22;4.57;;;4.40;99.90;;;;;;2080539;28;20606;-71
2023/10/23 05:07:29;;;;;;;8.07;5.20;;;4.50;99.90;;;;;;2078415;28;20319;-71
2023/10/23 05:08:30;;;;;;;8.23;4.70;;;4.50;99.90;;;;;;2069653;28;20345;-71
2023/10/23 05:09:31;;;;;;;6.88;4.47;;;4.50;99.90;;;;;;2062744;28;20237;-71
2023/10/23 05:10:32;;;;;;;10.80;5.20;;;4.40;99.90;;;;;;2071074;28;20290;-70
2023/10/23 05:11:32;;;;;;;6.43;4.17;;;4.40;99.90;;;;;;2068501;28;20230;-71
2023/10/23 05:12:35;;;;;;;6.87;4.53;;;4.40;99.90;;;;;;2067953;28;20335;-71
2023/10/23 05:13:36;;;;;;;6.47;4.32;;;4.40;99.90;;;;;;2064890;28;20259;-71
2023/10/23 05:14:36;;;;;;;6.60;3.73;;;4.40;99.90;;;;;;2066869;28;20239;-71
2023/10/23 05:15:37;;;;;;;3.97;3.17;;;4.50;99.90;;;;;;2067057;28;20723;-71
2023/10/23 05:16:38;;;;;;;4.10;2.70;;;4.50;99.90;;;;;;2067023;28;20320;-71
2023/10/23 05:17:38;;;;;;;3.50;2.50;;;4.50;99.90;;;;;;2079259;28;20232;-71
2023/10/23 05:18:39;;;;;;;4.77;2.40;;;4.50;99.90;;;;;;2070073;28;20265;-71
2023/10/23 05:19:40;;;;;;;1.83;1.70;;;4.50;99.90;;;;;;2070422;28;20235;-71
2023/10/23 05:20:40;;;;;;;4.23;2.80;;;4.60;99.90;;;;;;2071851;28;20236;-71
2023/10/23 05:21:41;;;;;;;5.93;3.27;;;4.50;99.90;;;;;;2072409;28;20603;-70